Latest Weather Observations for Dalby

IDQ60801

Issued at 11:22 pm EST Wednesday 8 December 2021 (issued every 10 minutes, with the page automatically refreshed every 10 minutes)

About weather observations | Map of weather stations | Latest weather observations for QLD | Other Formats
Station Details ID: 041522 Name: DALBY AIRPORT Lat: -27.16 Lon: 151.26 Height: 343.9 m
Data from the previous 72 hours. | See also: Recent months at Dalby
Date/Time
EST
Temp
°C
App
Temp
°C
Dew
Point
°C
Rel
Hum
%
Delta-T
°C
Wind Press
QNH
hPa
Press
MSL
hPa
Rain since
9am
mm
Dir  Spd
km/h
Gust
km/h
Spd
kts
Gust
kts
08/11:00pm 19.7 20.9 17.3 86 1.5 NE 7 7 4 4 1011.1 1009.1 8.8
08/10:30pm 20.0 20.9 17.6 86 1.5 NE 9 11 5 6 1011.4 1009.4 8.8
08/10:00pm 20.3 20.1 17.7 85 1.6 NE 15 20 8 11 1011.6 1009.7 8.8
08/09:30pm 20.5 20.0 17.9 85 1.6 ENE 17 22 9 12 1011.9 1009.9 8.8
08/09:00pm 20.7 19.8 18.1 85 1.6 NE 20 26 11 14 1011.9 1009.9 8.8
08/08:30pm 20.6 20.6 18.2 86 1.5 ENE 15 19 8 10 1011.8 1009.8 8.8
08/08:00pm 20.7 20.3 18.1 85 1.6 ENE 17 24 9 13 1011.5 1009.6 8.8
08/07:30pm 20.7 19.6 17.7 83 1.9 NE 20 28 11 15 1011.1 1009.1 8.8
08/07:00pm 20.7 19.4 17.3 81 2.1 NE 20 24 11 13 1010.9 1008.9 8.8
08/06:30pm 20.7 19.4 18.1 85 1.6 E 22 28 12 15 1010.7 1008.7 8.8
08/06:00pm 20.7 20.1 18.5 87 1.4 ENE 19 26 10 14 1010.8 1008.8 8.8
08/05:30pm 19.8 18.8 17.9 89 1.2 ENE 20 30 11 16 1010.7 1008.7 8.8
08/05:00pm 18.4 15.0 15.8 85 1.6 ENE 28 43 15 23 1010.8 1008.8 7.0
08/04:55pm 18.3 13.7 15.2 82 1.8 NE 33 52 18 28 1010.9 1008.9 6.0
08/04:45pm 20.4 15.5 15.2 72 3.1 NNE 35 46 19 25 1010.5 1008.5 0.2
08/04:30pm 25.2 21.9 12.8 46 7.3 ENE 22 35 12 19 1010.0 1008.0 0.0
08/04:00pm 29.2 29.9 16.0 44 8.3 WSW 7 15 4 8 1009.1 1007.1 0.0
08/03:30pm 29.3 30.3 18.7 52 6.9 NNE 11 20 6 11 1009.3 1007.3 0.0
08/03:00pm 28.1 27.4 17.3 52 6.9 N 17 24 9 13 1009.9 1007.9 0.0
08/02:30pm 27.8 26.6 16.1 49 7.3 N 17 20 9 11 1010.4 1008.4 0.0
08/02:00pm 27.5 25.3 14.8 45 7.8 N 20 28 11 15 1010.4 1008.4 0.0
08/01:30pm 25.7 22.3 15.7 54 6.2 NNW 28 50 15 27 1011.1 1009.1 0.0
08/01:28pm 26.3 23.6 15.7 52 6.6 NNW 24 50 13 27 1011.0 1009.0 0.0
08/01:00pm 29.3 28.4 16.8 47 7.9 NNW 17 28 9 15 1010.9 1008.9 0.0
08/12:30pm 28.5 27.8 18.3 54 6.6 NNW 19 28 10 15 1011.4 1009.4 0.0
08/12:00pm 27.5 27.6 17.4 54 6.4 N 13 22 7 12 1012.1 1010.1 0.0
08/11:30am 27.8 28.0 19.3 60 5.6 N 17 30 9 16 1012.8 1010.8 0.0
08/11:00am 27.3 26.0 17.2 54 6.4 NNW 20 33 11 18 1013.2 1011.2 0.0
08/10:30am 28.2 28.0 18.6 56 6.2 NNE 17 24 9 13 1013.3 1011.3 0.0
08/10:00am 26.7 26.7 18.0 59 5.6 NE 15 22 8 12 1013.6 1011.6 0.0
08/09:30am 26.2 27.3 18.1 61 5.2 NNW 9 17 5 9 1013.8 1011.8 0.0
08/09:00am 25.5 26.0 18.4 65 4.6 NNE 13 19 7 10 1013.9 1011.9 0.0
08/08:30am 24.9 26.3 18.6 68 4.1 NNE 9 15 5 8 1013.9 1011.9 0.0
08/08:00am 23.7 25.4 18.1 71 3.6 ENE 6 7 3 4 1013.9 1011.9 0.0
08/07:30am 23.2 26.0 17.9 72 3.4 CALM 0 0 0 0 1013.8 1011.8 0.0
08/07:00am 22.6 24.6 17.9 75 3.0 ESE 4 7 2 4 1013.5 1011.5 0.0
08/06:30am 21.7 23.1 17.7 78 2.5 SE 7 9 4 5 1013.2 1011.2 0.0
08/06:00am 20.9 22.4 17.5 81 2.1 SSE 6 7 3 4 1013.0 1011.0 0.0
08/05:30am 19.9 20.8 16.7 82 2.0 S 7 9 4 5 1012.8 1010.8 0.0
08/05:00am 19.3 20.1 16.3 83 1.8 SSW 7 9 4 5 1012.6 1010.6 0.0
08/04:30am 19.9 22.3 16.9 83 1.8 CALM 0 0 0 0 1012.6 1010.6 0.0
08/04:00am 19.9 22.2 16.7 82 2.0 CALM 0 0 0 0 1012.4 1010.4 0.0
08/03:30am 19.9 22.2 16.7 82 2.0 CALM 0 0 0 0 1012.2 1010.2 0.0
08/03:00am 19.9 20.8 16.7 82 2.0 NNW 7 9 4 5 1012.4 1010.4 0.0
08/02:30am 19.7 19.5 16.7 83 1.8 N 13 17 7 9 1012.3 1010.3 0.0
08/02:00am 19.9 20.2 16.9 83 1.8 N 11 13 6 7 1011.6 1009.7 0.0
08/01:30am 20.4 22.6 16.4 78 2.4 CALM 0 6 0 3 1012.3 1010.3 0.0
08/01:00am 20.9 21.3 16.3 75 2.8 W 9 9 5 5 1013.0 1011.0 0.0
08/12:30am 21.5 21.7 15.8 70 3.5 WSW 9 11 5 6 1013.0 1011.0 0.0
08/12:00am 22.3 21.3 15.6 66 4.1 WSW 15 20 8 11 1013.4 1011.4 0.0
 
Date/Time
EST
Temp
°C
App
Temp
°C
Dew
Point
°C
Rel
Hum
%
Delta-T
°C
Wind Press
QNH
hPa
Press
MSL
hPa
Rain since
9am
mm
Dir  Spd
km/h
Gust
km/h
Spd
kts
Gust
kts
07/11:30pm 23.2 22.0 17.0 68 3.9 W 19 30 10 16 1013.4 1011.4 0.0
07/11:00pm 22.8 23.0 16.8 69 3.7 NNE 11 13 6 7 1012.9 1010.9 0.0
07/10:30pm 22.7 23.5 17.4 72 3.3 NNE 9 11 5 6 1013.3 1011.3 0.0
07/10:00pm 23.0 24.3 17.5 71 3.5 NNE 7 11 4 6 1013.5 1011.5 0.0
07/09:30pm 23.3 24.1 17.3 69 3.8 N 9 9 5 5 1013.5 1011.5 0.0
07/09:00pm 24.1 24.6 16.6 63 4.7 N 9 11 5 6 1013.3 1011.3 0.0
07/08:30pm 24.2 24.3 16.5 62 4.8 NE 11 11 6 6 1012.5 1010.5 0.0
07/08:00pm 24.3 24.4 16.6 62 4.8 NNE 11 13 6 7 1012.0 1010.0 0.0
07/07:30pm 24.7 24.9 16.7 61 5.0 NNE 11 11 6 6 1012.0 1010.0 0.0
07/07:00pm 25.1 25.6 16.5 59 5.4 N 9 9 5 5 1011.6 1009.7 0.0
07/06:30pm 25.5 25.6 16.4 57 5.7 N 11 13 6 7 1011.3 1009.3 0.0
07/06:00pm 26.9 26.7 15.6 50 7.0 NNE 11 13 6 7 1011.0 1009.0 0.0
07/05:30pm 27.5 26.7 15.2 47 7.6 N 13 17 7 9 1011.0 1009.0 0.0
07/05:00pm 27.9 26.8 14.2 43 8.3 N 13 20 7 11 1010.9 1008.9 0.0
07/04:30pm 28.0 26.3 14.6 44 8.2 N 17 24 9 13 1010.6 1008.6 0.0
07/04:00pm 29.4 28.3 14.4 40 9.2 N 13 20 7 11 1010.6 1008.6 0.0
07/03:30pm 29.4 28.4 15.5 43 8.7 N 15 22 8 12 1010.8 1008.8 0.0
07/03:00pm 28.8 27.8 14.6 42 8.7 N 13 24 7 13 1011.5 1009.6 0.0
07/02:30pm 29.1 28.9 15.6 44 8.4 N 11 19 6 10 1012.1 1010.1 0.0
07/02:00pm 28.4 27.7 15.3 45 8.1 NNW 13 22 7 12 1012.3 1010.3 0.0
07/01:30pm 28.5 27.7 14.0 41 8.8 NNW 11 19 6 10 1012.7 1010.7 0.0
07/01:00pm 28.6 28.7 16.5 48 7.6 N 11 20 6 11 1013.0 1011.0 0.0
07/12:30pm 27.5 25.2 14.2 44 8.1 NNE 19 28 10 15 1013.3 1011.3 0.0
07/12:00pm 27.9 28.4 17.4 52 6.7 N 11 17 6 9 1013.7 1011.7 0.0
07/11:30am 26.7 25.7 14.5 47 7.4 N 13 22 7 12 1014.0 1012.0 0.0
07/11:00am 26.5 26.3 14.6 48 7.2 NNE 9 15 5 8 1014.3 1012.4 0.0
07/10:30am 26.4 26.3 16.9 56 6.0 NNE 13 22 7 12 1014.5 1012.6 0.0
07/10:00am 25.7 25.1 15.7 54 6.2 N 13 20 7 11 1014.7 1012.8 0.0
07/09:30am 25.0 25.4 16.2 58 5.5 NW 9 17 5 9 1015.3 1013.3 0.0
07/09:00am 23.9 22.9 14.6 56 5.6 NNW 13 19 7 10 1015.4 1013.4 0.2
07/08:30am 22.8 23.8 15.4 63 4.5 NNE 4 9 2 5 1015.4 1013.4 0.2
07/08:00am 22.1 22.7 15.7 67 3.9 N 7 13 4 7 1015.5 1013.5 0.2
07/07:30am 21.3 21.8 16.5 74 3.0 E 9 15 5 8 1015.3 1013.3 0.2
07/07:00am 20.7 22.4 16.1 75 2.8 ESE 2 11 1 6 1014.9 1012.9 0.2
07/06:30am 20.2 20.8 15.2 73 3.0 ESE 6 9 3 5 1014.1 1012.2 0.2
07/06:00am 19.7 18.1 14.9 74 2.9 ENE 17 24 9 13 1013.3 1011.3 0.2
07/05:30am 19.2 17.5 14.7 75 2.7 ENE 17 20 9 11 1012.8 1010.8 0.2
07/05:00am 18.7 17.4 14.8 78 2.3 ENE 15 19 8 10 1012.9 1010.9 0.2
07/04:30am 18.7 17.9 16.1 85 1.6 E 15 20 8 11 1012.6 1010.6 0.2
07/04:00am 18.9 18.1 16.1 84 1.7 NE 15 17 8 9 1012.9 1010.9 0.0
07/03:30am 18.9 18.8 16.1 84 1.7 E 11 13 6 7 1013.6 1011.6 0.0
07/03:00am 18.8 19.2 16.2 85 1.6 E 9 11 5 6 1013.9 1011.9 0.0
07/02:30am 19.0 19.7 16.2 84 1.7 ENE 7 9 4 5 1014.0 1012.0 0.0
07/02:00am 19.2 19.6 16.2 83 1.8 ENE 9 11 5 6 1014.1 1012.2 0.0
07/01:30am 19.4 19.7 16.1 81 2.0 E 9 13 5 7 1014.4 1012.5 0.0
07/01:00am 19.6 19.2 16.1 80 2.1 ENE 13 19 7 10 1014.9 1012.9 0.0
07/12:30am 19.9 19.1 16.0 78 2.4 ENE 15 20 8 11 1015.1 1013.1 0.0
07/12:00am 20.3 19.6 15.5 74 2.9 ENE 13 17 7 9 1015.3 1013.3 0.0
 
Date/Time
EST
Temp
°C
App
Temp
°C
Dew
Point
°C
Rel
Hum
%
Delta-T
°C
Wind Press
QNH
hPa
Press
MSL
hPa
Rain since
9am
mm
Dir  Spd
km/h
Gust
km/h
Spd
kts
Gust
kts
06/11:30pm 20.3 18.9 15.5 74 2.9 ENE 17 24 9 13 1015.4 1013.4 0.0
06/11:00pm 20.5 19.2 15.7 74 2.9 ENE 17 22 9 12 1015.4 1013.4 0.0
06/10:30pm 20.8 18.9 15.8 73 3.0 ENE 20 28 11 15 1015.4 1013.4 0.0
06/10:00pm 21.0 19.2 16.0 73 3.0 ENE 20 26 11 14 1015.4 1013.4 0.0
06/09:30pm 21.5 19.7 16.0 71 3.4 E 20 24 11 13 1015.4 1013.4 0.0
06/09:00pm 21.8 20.3 16.3 71 3.4 E 19 22 10 12 1015.3 1013.3 0.0
06/08:30pm 22.1 21.0 16.4 70 3.5 ENE 17 20 9 11 1014.9 1012.9 0.0
06/08:00pm 22.0 21.0 16.7 72 3.3 E 17 20 9 11 1014.4 1012.5 0.0
06/07:30pm 21.1 21.2 16.5 75 2.8 E 11 13 6 7 1014.2 1012.3 0.0
06/07:00pm 21.8 22.7 16.1 70 3.5 E 6 11 3 6 1013.8 1011.8 0.0
06/06:30pm 22.6 23.2 15.2 63 4.5 NE 6 9 3 5 1013.4 1011.4 0.0
06/06:00pm 23.2 23.1 15.0 60 5.0 N 9 11 5 6 1013.1 1011.1 0.0
06/05:30pm 24.2 23.4 15.1 56 5.5 NNW 13 19 7 10 1013.0 1011.0 0.0
06/05:00pm 24.7 23.2 14.2 52 6.3 N 15 19 8 10 1012.8 1010.8 0.0
06/04:30pm 24.4 21.5 13.9 52 6.3 N 22 30 12 16 1012.9 1010.9 0.0
06/04:00pm 23.4 20.1 14.9 59 5.1 N 26 35 14 19 1012.8 1010.8 0.0
06/03:30pm 22.8 19.8 16.8 69 3.7 N 28 35 15 19 1013.2 1011.2 0.0
06/03:00pm 22.7 19.3 16.7 69 3.7 N 30 37 16 20 1013.2 1011.2 0.0
06/02:30pm 23.4 21.1 16.7 66 4.2 NNW 24 33 13 18 1013.4 1011.4 0.0
06/02:00pm 26.8 26.3 13.9 45 7.8 ENE 9 15 5 8 1013.4 1011.4 0.0
06/01:30pm 27.4 27.4 15.1 47 7.6 ENE 9 15 5 8 1013.8 1011.8 0.0
06/01:00pm 26.8 24.5 14.2 46 7.6 ESE 19 28 10 15 1014.1 1012.2 0.0
06/12:30pm 27.1 24.9 14.8 47 7.5 E 20 30 11 16 1014.5 1012.6 0.0
06/12:00pm 27.3 25.4 16.6 52 6.7 ENE 22 32 12 17 1014.6 1012.7 0.0
06/11:30am 26.0 24.0 15.4 52 6.5 ENE 20 32 11 17 1015.1 1013.1 0.0
06/11:00am 26.8 24.5 16.7 54 6.4 ENE 24 35 13 19 1015.0 1013.0 0.0
06/10:30am 25.8 23.2 15.8 54 6.2 E 24 33 13 18 1015.1 1013.1 0.0
06/10:00am 25.5 21.9 15.2 53 6.3 E 28 35 15 19 1015.3 1013.3 0.0
06/09:30am 25.0 21.0 15.3 55 5.9 ENE 30 41 16 22 1015.8 1013.8 0.0
06/09:00am 24.4 21.0 14.8 55 5.8 ENE 26 35 14 19 1016.1 1014.1 0.0
06/08:30am 23.6 19.9 15.9 62 4.7 E 30 41 16 22 1016.1 1014.1 0.0
06/08:00am 22.8 19.1 14.9 61 4.8 E 28 39 15 21 1016.2 1014.2 0.0
06/07:30am 21.7 18.5 15.3 67 3.9 E 26 35 14 19 1016.2 1014.2 0.0
06/07:00am 20.3 16.7 15.3 73 3.0 E 28 35 15 19 1016.0 1014.0 0.0
06/06:30am 19.2 16.9 14.7 75 2.7 E 20 28 11 15 1015.9 1013.9 0.0
06/06:00am 17.7 15.9 14.4 81 1.9 ESE 17 22 9 12 1015.6 1013.6 0.0
06/05:30am 16.6 15.4 13.9 84 1.6 SE 13 17 7 9 1015.4 1013.4 0.0
06/05:00am 15.6 14.6 13.4 87 1.2 SE 11 15 6 8 1015.1 1013.1 0.0
06/04:30am 15.4 13.9 13.2 87 1.2 ESE 13 17 7 9 1014.7 1012.8 0.0
06/04:00am 15.7 14.3 13.4 86 1.3 ESE 13 19 7 10 1014.5 1012.6 0.0
06/03:30am 16.0 13.6 13.7 86 1.3 ESE 19 24 10 13 1014.1 1012.2 0.0
06/03:00am 16.4 13.4 13.7 84 1.5 ESE 22 30 12 16 1014.3 1012.4 0.0
06/02:30am 16.5 13.6 14.0 85 1.4 E 22 32 12 17 1014.2 1012.3 0.0
06/02:00am 16.3 13.9 13.8 85 1.4 ESE 19 20 10 11 1014.4 1012.5 0.0
06/01:30am 16.4 14.5 14.1 86 1.3 ESE 17 20 9 11 1014.7 1012.8 0.0
06/01:00am 16.6 15.1 14.1 85 1.4 E 15 19 8 10 1014.9 1012.9 0.0
06/12:30am 17.0 15.1 14.3 84 1.6 ESE 17 20 9 11 1015.2 1013.2 0.0
06/12:00am 17.2 15.8 14.5 84 1.6 ESE 15 19 8 10 1015.7 1013.7 0.0
 
Date/Time
EST
Temp
°C
App
Temp
°C
Dew
Point
°C
Rel
Hum
%
Delta-T
°C
Wind Press
QNH
hPa
Press
MSL
hPa
Rain since
9am
mm
Dir  Spd
km/h
Gust
km/h
Spd
kts
Gust
kts
05/11:30pm 17.7 16.0 14.6 82 1.8 ESE 17 20 9 11 1016.0 1014.0 0.0

Other formats

Comma delimited format used in spreadsheet applications
http://www.bom.gov.au/fwo/IDQ60801/IDQ60801.94542.axf

JavaScript Object Notation format (JSON) in row-major order
http://www.bom.gov.au/fwo/IDQ60801/IDQ60801.94542.json

Data quality

Most of these data are generated automatically and are frequently updated. Quality checks on data are not normally performed. It is possible for incorrect values to appear. Refer to information at About Latest Weather Observations and please check the disclaimer before using these data.